createdAt,value
2023-01-15T00:02:16.838Z,1.60
2023-01-15T00:04:44.165Z,0.97
2023-01-15T00:07:11.303Z,1.07
2023-01-15T00:09:38.399Z,1.90
2023-01-15T00:12:05.850Z,2.70
2023-01-15T00:14:32.985Z,1.60
2023-01-15T00:17:00.089Z,1.40
2023-01-15T00:19:27.308Z,0.70
2023-01-15T00:21:54.408Z,2.83
2023-01-15T00:24:40.117Z,0.63
2023-01-15T00:27:29.091Z,2.60
2023-01-15T00:29:56.222Z,0.60
2023-01-15T00:32:23.389Z,0.83
2023-01-15T00:34:50.501Z,0.70
2023-01-15T00:37:17.864Z,0.80
2023-01-15T00:39:45.119Z,2.70
2023-01-15T00:42:12.775Z,0.40
2023-01-15T00:44:40.455Z,1.10
2023-01-15T00:47:09.280Z,0.50
2023-01-15T00:49:36.688Z,2.23
2023-01-15T00:52:03.855Z,2.00
2023-01-15T00:54:31.291Z,1.70
2023-01-15T00:56:58.475Z,0.47
2023-01-15T00:59:25.803Z,1.20
2023-01-15T01:01:53.695Z,1.10
2023-01-15T01:04:20.968Z,0.50
2023-01-15T01:06:48.019Z,0.47
2023-01-15T01:09:16.029Z,1.13
2023-01-15T01:11:43.836Z,0.80
2023-01-15T01:14:13.984Z,0.93
2023-01-15T01:16:42.156Z,0.57
2023-01-15T01:19:21.919Z,0.40
2023-01-15T01:21:49.975Z,0.43
2023-01-15T01:24:20.946Z,0.90
2023-01-15T01:26:48.508Z,1.90
2023-01-15T01:29:17.596Z,0.53
2023-01-15T01:31:44.965Z,1.20
2023-01-15T01:34:13.300Z,1.80
2023-01-15T01:36:42.581Z,0.80
2023-01-15T01:39:16.750Z,3.07
2023-01-15T01:41:44.246Z,1.70
2023-01-15T01:44:53.473Z,0.50
2023-01-15T01:47:29.660Z,1.53
2023-01-15T01:50:08.123Z,1.87
2023-01-15T01:52:53.644Z,0.60
2023-01-15T01:55:23.435Z,1.80
2023-01-15T01:57:52.883Z,6.93
2023-01-15T02:00:21.716Z,1.23
2023-01-15T02:02:50.242Z,0.57
2023-01-15T02:05:27.855Z,0.70
2023-01-15T02:07:55.606Z,1.17
2023-01-15T02:10:23.186Z,0.73
2023-01-15T02:13:12.535Z,0.63
2023-01-15T02:15:47.709Z,0.60
2023-01-15T02:18:43.257Z,1.50
2023-01-15T02:21:41.074Z,1.57
2023-01-15T02:24:31.943Z,1.53
2023-01-15T02:27:18.351Z,1.77
2023-01-15T02:30:23.307Z,0.93
2023-01-15T02:33:03.233Z,0.77
2023-01-15T02:36:06.850Z,1.90
2023-01-15T02:38:47.293Z,1.33
2023-01-15T02:41:19.268Z,1.77
2023-01-15T02:43:52.343Z,1.67
2023-01-15T02:46:26.737Z,2.97
2023-01-15T02:48:56.158Z,0.77
2023-01-15T02:51:28.741Z,0.93
2023-01-15T02:54:00.684Z,2.37
2023-01-15T02:56:33.426Z,0.83
2023-01-15T02:59:06.900Z,0.63
2023-01-15T03:01:43.155Z,0.63
2023-01-15T03:04:50.020Z,1.20
2023-01-15T03:08:06.022Z,1.77
2023-01-15T03:11:13.812Z,0.67
2023-01-15T03:14:05.236Z,0.63
2023-01-15T03:16:46.246Z,0.97
2023-01-15T03:19:47.830Z,1.23
2023-01-15T03:22:31.864Z,0.47
2023-01-15T03:25:16.687Z,1.70
2023-01-15T03:27:48.440Z,0.70
2023-01-15T03:30:21.738Z,1.73
2023-01-15T03:32:50.674Z,0.87
2023-01-15T03:35:47.527Z,0.60
2023-01-15T03:38:37.640Z,2.23
2023-01-15T03:41:26.206Z,2.30
2023-01-15T03:44:27.994Z,0.43
2023-01-15T03:47:25.054Z,1.40
2023-01-15T03:50:40.495Z,0.40
2023-01-15T03:56:33.296Z,0.53
2023-01-15T03:59:23.929Z,0.50
2023-01-15T04:02:02.785Z,1.30
2023-01-15T04:04:31.191Z,0.53
2023-01-15T04:07:01.533Z,1.13
2023-01-15T04:09:28.971Z,0.70
2023-01-15T04:12:01.625Z,1.00
2023-01-15T04:14:33.164Z,0.40
2023-01-15T04:17:06.286Z,1.13
2023-01-15T04:19:33.787Z,0.50
2023-01-15T04:22:04.793Z,1.03
2023-01-15T04:24:31.982Z,1.60
2023-01-15T04:26:59.033Z,1.20
2023-01-15T04:29:26.463Z,0.90
2023-01-15T04:31:57.665Z,1.07
2023-01-15T04:34:28.931Z,3.50
2023-01-15T04:36:56.530Z,0.53
2023-01-15T04:39:23.720Z,0.70
2023-01-15T04:42:09.369Z,0.43
2023-01-15T04:44:37.648Z,0.40
2023-01-15T04:47:04.785Z,1.17
2023-01-15T04:49:32.337Z,1.87
2023-01-15T04:51:59.475Z,1.13
2023-01-15T04:54:26.692Z,0.40
2023-01-15T04:56:55.101Z,1.93
2023-01-15T04:59:25.120Z,2.13
2023-01-15T05:02:03.152Z,2.43
2023-01-15T05:04:33.601Z,0.63
2023-01-15T05:07:03.013Z,0.80
2023-01-15T05:09:30.216Z,0.40
2023-01-15T05:11:57.456Z,3.90
2023-01-15T05:14:24.614Z,0.60
2023-01-15T05:16:51.723Z,0.93
2023-01-15T05:19:18.927Z,0.50
2023-01-15T05:21:46.142Z,0.40
2023-01-15T05:24:17.808Z,1.90
2023-01-15T05:26:44.964Z,0.93
2023-01-15T05:29:12.371Z,0.40
2023-01-15T05:31:40.026Z,0.30
2023-01-15T05:34:07.087Z,3.20
2023-01-15T05:36:35.462Z,1.27
2023-01-15T05:39:02.734Z,1.13
2023-01-15T05:41:49.386Z,1.57
2023-01-15T05:44:25.760Z,1.43
2023-01-15T05:46:55.534Z,2.00
2023-01-15T05:49:25.123Z,1.93
2023-01-15T05:51:53.332Z,1.80
2023-01-15T05:54:23.545Z,1.43
2023-01-15T05:56:51.058Z,0.57
2023-01-15T05:59:21.719Z,1.37
2023-01-15T06:01:49.266Z,1.30
2023-01-15T06:04:17.903Z,1.80
2023-01-15T06:06:51.028Z,1.30
2023-01-15T06:09:19.038Z,1.60
2023-01-15T06:11:47.505Z,1.27
2023-01-15T06:14:15.083Z,0.43
2023-01-15T06:16:42.204Z,0.30
2023-01-15T06:19:11.925Z,0.40
2023-01-15T06:21:39.296Z,1.97
2023-01-15T06:24:07.091Z,0.63
2023-01-15T06:26:34.601Z,0.47
2023-01-15T06:29:01.761Z,0.53
2023-01-15T06:31:28.928Z,0.67
2023-01-15T06:33:56.167Z,0.90
2023-01-15T06:36:25.268Z,0.40
2023-01-15T06:38:52.497Z,0.77
2023-01-15T06:41:43.362Z,1.10
2023-01-15T06:44:32.598Z,1.23
2023-01-15T06:47:22.826Z,1.00
2023-01-15T06:49:55.621Z,1.33
2023-01-15T06:52:27.021Z,1.33
2023-01-15T06:54:54.280Z,0.40
2023-01-15T06:57:21.888Z,0.40
2023-01-15T06:59:50.204Z,0.80
2023-01-15T07:02:18.437Z,1.47
2023-01-15T07:04:47.011Z,0.63
2023-01-15T07:07:15.571Z,0.60
2023-01-15T07:09:42.776Z,0.40
2023-01-15T07:12:09.894Z,1.93
2023-01-15T07:14:37.201Z,1.30
2023-01-15T07:17:04.273Z,1.43
2023-01-15T07:19:31.378Z,1.23
2023-01-15T07:21:58.496Z,0.50
2023-01-15T07:24:25.611Z,1.57
2023-01-15T07:26:52.694Z,0.50
2023-01-15T07:29:19.872Z,1.13
2023-01-15T07:31:47.089Z,0.47
2023-01-15T07:34:14.332Z,0.70
2023-01-15T07:36:41.499Z,0.47
2023-01-15T07:39:10.391Z,1.20
2023-01-15T07:41:56.124Z,0.83
2023-01-15T07:44:41.993Z,0.50
2023-01-15T07:47:37.084Z,3.17
2023-01-15T07:50:05.970Z,0.30
2023-01-15T07:52:33.099Z,0.20
2023-01-15T07:55:01.225Z,0.77
2023-01-15T07:57:28.435Z,0.30
2023-01-15T07:59:55.776Z,1.43
2023-01-15T08:02:22.945Z,0.20
2023-01-15T08:04:50.072Z,0.77
2023-01-15T08:07:17.146Z,0.23
2023-01-15T08:09:44.492Z,0.83
2023-01-15T08:12:30.653Z,0.67
2023-01-15T08:15:13.142Z,0.20
2023-01-15T08:17:45.643Z,0.57
2023-01-15T08:20:17.986Z,0.57
2023-01-15T08:22:45.826Z,0.37
2023-01-15T08:25:20.393Z,0.13
2023-01-15T08:27:47.916Z,0.20
2023-01-15T08:30:22.398Z,0.23
2023-01-15T08:32:49.587Z,0.20
2023-01-15T08:35:16.729Z,0.10
2023-01-15T08:37:43.978Z,0.10
2023-01-15T08:40:12.435Z,0.10
2023-01-15T08:42:39.949Z,0.10
2023-01-15T08:45:08.089Z,0.33
2023-01-15T08:47:35.207Z,0.50
2023-01-15T08:50:02.447Z,0.30
2023-01-15T08:52:29.831Z,0.43
2023-01-15T08:54:56.946Z,6.27
2023-01-15T08:57:24.153Z,0.10
2023-01-15T08:59:51.245Z,0.10
2023-01-15T09:02:20.013Z,0.13
2023-01-15T09:04:47.166Z,1.60
2023-01-15T09:07:14.434Z,0.20
2023-01-15T09:09:41.575Z,0.20
2023-01-15T09:12:09.111Z,0.13
2023-01-15T09:14:55.975Z,0.10
2023-01-15T09:17:23.364Z,0.10
2023-01-15T09:19:50.512Z,0.20
2023-01-15T09:22:17.688Z,0.73
2023-01-15T09:24:44.808Z,0.10
2023-01-15T09:27:12.734Z,0.27
2023-01-15T09:29:39.855Z,0.10
2023-01-15T09:32:08.290Z,0.57
2023-01-15T09:34:35.412Z,0.33
2023-01-15T09:37:02.813Z,0.10
2023-01-15T09:39:29.987Z,0.10
2023-01-15T09:42:38.496Z,0.10
2023-01-15T09:45:30.666Z,0.13
2023-01-15T09:48:52.994Z,0.10
2023-01-15T09:51:50.719Z,0.10
2023-01-15T09:54:50.206Z,0.20
2023-01-15T09:57:19.787Z,0.10
2023-01-15T09:59:49.427Z,3.47
2023-01-15T10:02:51.534Z,0.20
2023-01-15T10:05:30.639Z,0.47
2023-01-15T10:08:42.992Z,0.30
2023-01-15T10:11:57.941Z,1.20
2023-01-15T10:14:40.654Z,1.07
2023-01-15T10:17:29.787Z,0.27
2023-01-15T10:19:57.818Z,0.20
2023-01-15T10:23:01.785Z,0.40
2023-01-15T10:25:39.812Z,0.20
2023-01-15T10:28:33.656Z,0.30
2023-01-15T10:31:26.259Z,0.20
2023-01-15T10:34:25.261Z,0.37
2023-01-15T10:37:12.186Z,0.53
2023-01-15T10:40:18.588Z,0.30
2023-01-15T10:43:24.721Z,0.40
2023-01-15T10:45:56.989Z,0.27
2023-01-15T10:48:38.529Z,0.63
2023-01-15T10:51:25.010Z,0.20
2023-01-15T10:54:15.046Z,0.60
2023-01-15T10:57:16.113Z,0.20
2023-01-15T11:00:00.264Z,0.87
2023-01-15T11:02:43.457Z,0.13
2023-01-15T11:05:19.919Z,0.10
2023-01-15T11:08:19.520Z,0.20
2023-01-15T11:10:40.619Z,0.93
2023-01-15T11:13:53.402Z,0.67
2023-01-15T11:16:44.272Z,0.20
2023-01-15T11:19:42.557Z,1.90
2023-01-15T11:22:18.385Z,0.17
2023-01-15T11:24:51.528Z,2.43
2023-01-15T11:27:22.777Z,0.27
2023-01-15T11:29:58.823Z,0.30
2023-01-15T11:32:30.955Z,0.20
2023-01-15T11:35:00.873Z,3.00
2023-01-15T11:37:28.986Z,0.20
2023-01-15T11:40:05.997Z,0.30
2023-01-15T11:42:52.998Z,0.80
2023-01-15T11:45:40.497Z,0.60
2023-01-15T11:48:38.394Z,1.80
2023-01-15T11:51:15.940Z,1.60
2023-01-15T11:53:50.430Z,0.30
2023-01-15T11:56:23.386Z,0.97
2023-01-15T11:58:58.667Z,0.40
2023-01-15T12:01:36.252Z,0.30
2023-01-15T12:04:08.212Z,0.33
2023-01-15T12:06:40.232Z,0.33
2023-01-15T12:09:56.354Z,0.83
2023-01-15T12:13:12.461Z,0.20
2023-01-15T12:16:05.362Z,0.37
2023-01-15T12:19:06.393Z,0.20
2023-01-15T12:22:35.288Z,0.30
2023-01-15T12:53:44.783Z,0.30
2023-01-15T12:56:38.216Z,0.30
2023-01-15T12:59:21.330Z,0.40
2023-01-15T13:02:13.584Z,0.10
2023-01-15T13:05:02.632Z,0.20
2023-01-15T13:08:06.480Z,0.20
2023-01-15T13:10:37.009Z,0.13
2023-01-15T13:16:28.470Z,0.20
2023-01-15T13:19:30.052Z,0.80
2023-01-15T13:22:03.591Z,0.63
2023-01-15T13:25:01.819Z,0.30
2023-01-15T13:28:07.743Z,0.47
2023-01-15T13:31:22.021Z,0.50
2023-01-15T13:33:56.430Z,0.43
2023-01-15T13:36:35.567Z,0.53
2023-01-15T13:39:05.397Z,1.00
2023-01-15T13:41:53.571Z,1.30
2023-01-15T13:44:32.166Z,0.40
2023-01-15T13:47:10.420Z,0.30
2023-01-15T13:49:47.051Z,0.50
2023-01-15T13:52:35.438Z,0.20
2023-01-15T13:55:34.248Z,0.30
2023-01-15T13:58:01.375Z,0.50
2023-01-15T14:00:37.122Z,0.57
2023-01-15T14:03:28.506Z,0.30
2023-01-15T14:06:06.990Z,0.83
2023-01-15T14:08:43.819Z,0.40
2023-01-15T14:11:41.864Z,0.63
2023-01-15T14:14:48.437Z,1.07
2023-01-15T14:17:50.907Z,0.83
2023-01-15T14:20:48.951Z,1.43
2023-01-15T14:24:08.261Z,0.50
2023-01-15T14:27:33.204Z,0.70
2023-01-15T14:30:34.224Z,0.50
2023-01-15T14:33:32.273Z,0.63
2023-01-15T14:36:29.547Z,0.97
2023-01-15T14:39:00.479Z,1.70
2023-01-15T14:41:56.317Z,0.63
2023-01-15T14:44:31.260Z,0.40
2023-01-15T14:47:04.866Z,0.40
2023-01-15T14:49:45.442Z,0.40
2023-01-15T14:52:12.668Z,0.60
2023-01-15T14:54:40.143Z,0.60
2023-01-15T14:57:09.015Z,0.87
2023-01-15T14:59:55.079Z,0.97
2023-01-15T15:02:36.174Z,0.70
2023-01-15T15:05:09.156Z,1.90
2023-01-15T15:07:48.957Z,0.20
2023-01-15T15:10:31.325Z,0.87
2023-01-15T15:13:22.811Z,0.70
2023-01-15T15:16:06.036Z,0.50
2023-01-15T15:18:58.487Z,0.70
2023-01-15T15:21:29.271Z,0.67
2023-01-15T15:24:02.504Z,0.63
2023-01-15T15:26:37.862Z,0.73
2023-01-15T15:29:14.206Z,0.47
2023-01-15T15:31:49.457Z,0.60
2023-01-15T15:34:24.405Z,0.67
2023-01-15T15:36:51.870Z,0.93
2023-01-15T15:39:25.811Z,0.67
2023-01-15T15:42:16.511Z,0.70
2023-01-15T15:45:16.259Z,0.90
2023-01-15T15:48:02.633Z,0.60
2023-01-15T15:50:34.956Z,1.67
2023-01-15T15:53:06.952Z,1.43
2023-01-15T15:55:43.913Z,0.90
2023-01-15T15:58:37.828Z,0.50
2023-01-15T16:01:05.684Z,3.30
2023-01-15T16:03:33.624Z,1.37
2023-01-15T16:06:06.389Z,2.50
2023-01-15T16:08:35.714Z,1.60
2023-01-15T16:11:07.147Z,0.83
2023-01-15T16:13:43.879Z,1.50
2023-01-15T16:16:12.853Z,1.03
2023-01-15T16:18:52.337Z,3.67
2023-01-15T16:21:28.018Z,3.80
2023-01-15T16:24:07.647Z,1.50
2023-01-15T16:26:52.579Z,3.87
2023-01-15T16:29:32.250Z,1.67
2023-01-15T16:32:00.233Z,1.63
2023-01-15T16:34:33.487Z,1.30
2023-01-15T16:37:01.892Z,1.10
2023-01-15T16:39:39.954Z,2.83
2023-01-15T16:42:35.309Z,3.10
2023-01-15T16:45:07.523Z,2.10
2023-01-15T16:47:36.397Z,0.80
2023-01-15T16:50:31.581Z,1.37
2023-01-15T16:53:01.983Z,2.00
2023-01-15T16:55:43.880Z,3.37
2023-01-15T16:58:19.718Z,3.13
2023-01-15T17:00:50.783Z,1.60
2023-01-15T17:03:21.059Z,1.60
2023-01-15T17:06:04.530Z,1.60
2023-01-15T17:08:40.423Z,3.07
2023-01-15T17:11:21.198Z,4.00
2023-01-15T17:13:48.350Z,4.20
2023-01-15T17:16:25.247Z,2.27
2023-01-15T17:18:52.420Z,2.03
2023-01-15T17:21:29.498Z,1.70
2023-01-15T17:24:00.005Z,1.60
2023-01-15T17:26:30.022Z,1.70
2023-01-15T17:28:57.208Z,1.37
2023-01-15T17:31:30.216Z,1.87
2023-01-15T17:33:59.035Z,0.70
2023-01-15T17:36:27.704Z,1.43
2023-01-15T17:38:55.876Z,1.73
2023-01-15T17:41:24.345Z,1.23
2023-01-15T17:43:51.948Z,1.60
2023-01-15T17:46:19.077Z,2.30
2023-01-15T17:48:46.352Z,1.10
2023-01-15T17:51:15.288Z,3.20
2023-01-15T17:53:42.743Z,0.90
2023-01-15T17:56:28.551Z,2.30
2023-01-15T17:59:14.437Z,3.10
2023-01-15T18:02:03.982Z,1.20
2023-01-15T18:04:58.942Z,2.77
2023-01-15T18:07:41.352Z,1.47
2023-01-15T18:10:19.217Z,1.23
2023-01-15T18:12:46.915Z,1.13
2023-01-15T18:15:15.133Z,3.20
2023-01-15T18:17:42.297Z,1.30
2023-01-15T18:20:10.783Z,1.10
2023-01-15T18:22:37.996Z,2.13
2023-01-15T18:25:06.753Z,3.50
2023-01-15T18:27:34.118Z,2.30
2023-01-15T18:30:01.283Z,1.87
2023-01-15T18:32:30.609Z,2.00
2023-01-15T18:34:57.882Z,1.90
2023-01-15T18:37:25.205Z,2.57
2023-01-15T18:39:52.297Z,2.70
2023-01-15T18:42:37.961Z,3.00
2023-01-15T18:45:24.193Z,1.47
2023-01-15T18:47:51.355Z,4.53
2023-01-15T18:50:18.607Z,1.23
2023-01-15T18:52:51.572Z,3.13
2023-01-15T18:55:27.127Z,2.93
2023-01-15T18:57:55.443Z,1.97
2023-01-15T19:00:24.330Z,1.97
2023-01-15T19:02:52.505Z,1.63
2023-01-15T19:05:19.713Z,3.53
2023-01-15T19:07:47.102Z,2.57
2023-01-15T19:10:16.608Z,3.80
2023-01-15T19:12:45.117Z,4.20
2023-01-15T19:15:39.777Z,2.57
2023-01-15T19:18:28.156Z,3.03
2023-01-15T19:20:55.349Z,3.27
2023-01-15T19:23:22.490Z,1.77
2023-01-15T19:25:49.763Z,3.80
2023-01-15T19:28:19.361Z,3.23
2023-01-15T19:31:06.637Z,2.13
2023-01-15T19:33:34.624Z,2.90
2023-01-15T19:36:02.005Z,2.57
2023-01-15T19:38:29.243Z,3.73
2023-01-15T19:41:16.343Z,6.53
2023-01-15T19:44:01.984Z,1.90
2023-01-15T19:46:47.632Z,1.03
2023-01-15T19:49:39.038Z,2.37
2023-01-15T19:52:24.491Z,6.23
2023-01-15T19:54:57.560Z,3.23
2023-01-15T19:57:24.743Z,3.23
2023-01-15T19:59:52.419Z,4.33
2023-01-15T20:02:19.620Z,7.67
2023-01-15T20:04:47.465Z,4.10
2023-01-15T20:07:14.911Z,2.87
2023-01-15T20:09:43.054Z,2.47
2023-01-15T20:12:30.382Z,2.30
2023-01-15T20:14:57.752Z,4.60
2023-01-15T20:17:25.000Z,4.93
2023-01-15T20:19:52.195Z,4.93
2023-01-15T20:22:19.332Z,4.27
2023-01-15T20:24:46.522Z,1.90
2023-01-15T20:27:14.310Z,3.30
2023-01-15T20:29:44.393Z,5.33
2023-01-15T20:32:11.467Z,2.20
2023-01-15T20:34:39.485Z,2.40
2023-01-15T20:37:07.311Z,2.50
2023-01-15T20:39:34.521Z,2.90
2023-01-15T20:42:19.993Z,3.50
2023-01-15T20:44:56.066Z,4.73
2023-01-15T20:47:46.536Z,4.47
2023-01-15T20:50:17.367Z,1.70
2023-01-15T20:52:49.455Z,2.97
2023-01-15T20:55:17.942Z,3.10
2023-01-15T20:57:45.751Z,2.37
2023-01-15T21:00:18.569Z,2.70
2023-01-15T21:02:45.779Z,4.87
2023-01-15T21:05:13.275Z,1.43
2023-01-15T21:07:41.025Z,4.33
2023-01-15T21:10:11.406Z,3.20
2023-01-15T21:12:41.692Z,3.87
2023-01-15T21:15:09.816Z,2.87
2023-01-15T21:17:39.255Z,2.00
2023-01-15T21:20:13.146Z,1.47
2023-01-15T21:22:40.514Z,4.53
2023-01-15T21:25:09.972Z,4.17
2023-01-15T21:27:37.946Z,2.20
2023-01-15T21:30:06.237Z,1.50
2023-01-15T21:32:33.530Z,2.03
2023-01-15T21:35:00.661Z,5.07
2023-01-15T21:37:28.052Z,3.90
2023-01-15T21:39:55.148Z,2.33
2023-01-15T21:42:41.013Z,1.73
2023-01-15T21:45:09.264Z,4.87
2023-01-15T21:47:41.481Z,4.57
2023-01-15T21:50:09.470Z,5.90
2023-01-15T21:52:36.598Z,4.37
2023-01-15T21:55:04.209Z,2.23
2023-01-15T21:57:31.405Z,6.63
2023-01-15T21:59:58.587Z,3.20
2023-01-15T22:02:25.728Z,3.70
2023-01-15T22:04:52.921Z,2.73
2023-01-15T22:07:20.004Z,5.03
2023-01-15T22:09:47.091Z,4.27
2023-01-15T22:12:14.231Z,2.70
2023-01-15T22:14:41.531Z,4.53
2023-01-15T22:17:10.193Z,2.83
2023-01-15T22:19:37.550Z,4.80
2023-01-15T22:22:10.525Z,5.37
2023-01-15T22:24:39.380Z,3.60
2023-01-15T22:27:08.615Z,4.60
2023-01-15T22:29:41.005Z,6.13
2023-01-15T22:32:10.571Z,3.30
2023-01-15T22:34:37.751Z,4.43
2023-01-15T22:37:05.069Z,6.57
2023-01-15T22:39:32.291Z,5.17
2023-01-15T22:42:17.814Z,1.87
2023-01-15T22:44:45.310Z,4.20
2023-01-15T22:47:12.858Z,4.00
2023-01-15T22:49:40.088Z,4.53
2023-01-15T22:52:07.205Z,3.93
2023-01-15T22:54:34.331Z,6.30
2023-01-15T22:57:01.691Z,1.40
2023-01-15T22:59:28.856Z,2.83
2023-01-15T23:01:56.063Z,1.73
2023-01-15T23:04:24.858Z,4.67
2023-01-15T23:06:53.109Z,3.30
2023-01-15T23:09:24.097Z,1.80
2023-01-15T23:11:51.821Z,4.43
2023-01-15T23:14:21.193Z,3.80
2023-01-15T23:16:48.612Z,4.20
2023-01-15T23:19:15.914Z,4.37
2023-01-15T23:21:43.231Z,3.30
2023-01-15T23:24:11.577Z,7.33
2023-01-15T23:26:38.809Z,5.80
2023-01-15T23:29:06.009Z,6.33
2023-01-15T23:31:33.994Z,6.77
2023-01-15T23:34:01.236Z,4.53
2023-01-15T23:36:28.728Z,1.97
2023-01-15T23:38:55.827Z,3.13
2023-01-15T23:41:44.370Z,3.87
2023-01-15T23:44:35.346Z,2.80
2023-01-15T23:47:02.566Z,3.47
2023-01-15T23:49:29.643Z,2.07
2023-01-15T23:51:56.741Z,3.73
2023-01-15T23:54:27.511Z,4.33
2023-01-15T23:56:55.583Z,3.63
2023-01-15T23:59:22.847Z,3.93
